Happy Valentine's Day! 

Flight Track Log - Related Links

Times and Time Zones

All times are in EDT time to prevent confusion due to time zone crossing. See the GJS3706 flight status page for this flight to view local times or setup timezone preferences in your user account.


Time Position Orientation Groundspeed Altitude Reporting Facility
EDT Latitude Longitude Course Direction KTS MPH feet Rate Location/Type
Sat 11:45:44 AM 44.5081 -73.3133 271° West 218 251 4,700  Level Boston Center
Sat 11:46:44 AM 44.4906 -73.4236 257° West 264 304 7,600 2,900 Climbing Boston Center
Sat 11:47:00 AM 44.3660 -73.7045 259° West  Level FlightAware Approximate
Sat 11:47:44 AM 44.4708 -73.5281 255° West 282 325 10,500  Level Boston Center
Sat 11:48:00 AM 44.3460 -73.8450 259° West  Level FlightAware Approximate
Sat 11:48:44 AM 44.4489 -73.6381 254° West 308 354 12,000  Level Boston Center
Sat 11:49:00 AM 44.3236 -73.9846 255° West  Level FlightAware Approximate
Sat 11:49:44 AM 44.4203 -73.7858 255° West 344 396 14,200  Level Boston Center
Sat 11:50:00 AM 44.2974 -74.1229 255° West  Level FlightAware Approximate
Sat 11:50:44 AM 44.3933 -73.9217 255° West 362 417 16,400  Level Boston Center
Sat 11:51:44 AM 44.3667 -74.0633 255° West 372 428 17,900 1,600 Climbing Boston Center
Sat 11:52:44 AM 44.3353 -74.2133 254° West 386 444 19,600 1,250 Climbing Boston Center
Sat 11:53:44 AM 44.3122 -74.3406 256° West 393 452 20,400 1,150 Climbing Boston Center
Sat 11:54:44 AM 44.2714 -74.5392 254° West 430 495 21,900 1,450 Climbing Boston Center
Sat 11:55:44 AM 44.2369 -74.7061 254° West 443 510 23,300 850 Climbing Boston Center
Sat 11:56:44 AM 44.2069 -74.8528 254° West 448 516 23,600 1,150 Climbing Boston Center
Sat 11:57:44 AM 44.1692 -75.0450 255° West 441 507 25,600 1,318 Climbing Boston Center
Sat 11:58:56 AM 44.1339 -75.2200 254° West 460 529 26,500 1,000 Climbing Boston Center
Sat 11:59:56 AM 44.0889 -75.4375 254° West 481 554 27,800 1,200 Climbing Boston Center
Sat 12:00:56 PM 44.0531 -75.6122 254° West 481 554 28,900 900 Climbing Boston Center
Sat 12:01:56 PM 44.0144 -75.7892 253° West 481 554 29,600 550 Climbing Boston Center
Sat 12:02:56 PM 43.9758 -75.9717 254° West 489 563 30,000 350 Climbing Boston Center
Sat 12:03:56 PM 43.9469 -76.1575 258° West 489 563 30,300 850 Climbing Boston Center
Sat 12:04:56 PM 43.9325 -76.3442 264° West 489 563 31,700 1,650 Climbing Boston Center
Sat 12:05:56 PM 43.9158 -76.5217 263° West 479 551 33,600 1,699 Climbing Boston Center
Sat 12:07:42 PM 43.8833 -76.7833 260° West 430 495 36,400 1,337 Climbing Toronto Center
Sat 12:08:42 PM 43.8500 -76.9500 255° West 430 495 37,300 800 Climbing Toronto Center
Sat 12:09:42 PM 43.8333 -77.1167 262° West 420 483 38,000 350 Climbing Toronto Center
Sat 12:10:42 PM 43.8167 -77.2833 262° West 420 483 38,000  Level Toronto Center
Sat 12:11:42 PM 43.8167 -77.4333 270° West 430 495 38,000  Level Toronto Center
Sat 12:12:42 PM 43.8333 -77.5833 279° West 410 472 38,000  Level Toronto Center
Sat 12:13:42 PM 43.8667 -77.7333 287° West 400 460 38,000  Level Toronto Center
Sat 12:14:42 PM 43.8833 -77.9000 278° West 410 472 38,000  Level Toronto Center
Sat 12:15:42 PM 43.9000 -78.0667 278° West 420 483 38,000  Level Toronto Center
Sat 12:16:42 PM 43.9333 -78.2167 287° West 430 495 38,000  Level Toronto Center
Sat 12:17:42 PM 43.9333 -78.3833 270° West 420 483 38,000  Level Toronto Center
Sat 12:18:42 PM 43.9333 -78.5500 270° West 410 472 38,000  Level Toronto Center
Sat 12:19:42 PM 43.9167 -78.6833 260° West 410 472 38,000  Level Toronto Center
Sat 12:20:42 PM 43.8833 -78.8500 255° West 410 472 38,000  Level Toronto Center
Sat 12:21:42 PM 43.8667 -79.0167 262° West 420 483 38,000  Level Toronto Center
Sat 12:22:42 PM 43.8333 -79.1500 251° West 420 483 38,000  Level Toronto Center
Sat 12:23:42 PM 43.8167 -79.3167 262° West 410 472 38,000  Level Toronto Center
Sat 12:24:42 PM 43.8000 -79.4500 260° West 400 460 38,000  Level Toronto Center
Sat 12:25:42 PM 43.7667 -79.6167 255° West 400 460 38,000  Level Toronto Center
Sat 12:26:42 PM 43.7500 -79.7500 260° West 410 472 38,000  Level Toronto Center
Sat 12:27:42 PM 43.7167 -79.9167 255° West 410 472 38,000  Level Toronto Center
Sat 12:28:42 PM 43.7000 -80.0667 261° West 410 472 38,000  Level Toronto Center
Sat 12:29:42 PM 43.6667 -80.2333 255° West 420 483 38,000  Level Toronto Center
Sat 12:30:42 PM 43.6500 -80.3667 260° West 420 483 38,000  Level Toronto Center
Sat 12:31:42 PM 43.6333 -80.5333 262° West 410 472 38,000  Level Toronto Center
Sat 12:32:42 PM 43.6000 -80.7000 255° West 400 460 38,000  Level Toronto Center
Sat 12:33:42 PM 43.5500 -80.8333 243° Southwest 400 460 38,000  Level Toronto Center
Sat 12:34:42 PM 43.4833 -80.9500 232° Southwest 400 460 38,000  Level Toronto Center
Sat 12:35:42 PM 43.4000 -81.0500 221° Southwest 400 460 38,000  Level Toronto Center
Sat 12:36:42 PM 43.3833 -81.2167 262° West 410 472 38,000  Level Toronto Center
Sat 12:37:42 PM 43.3667 -81.3500 260° West 410 472 38,000  Level Toronto Center
Sat 12:38:42 PM 43.3333 -81.5167 255° West 410 472 38,000  Level Toronto Center
Sat 12:39:42 PM 43.3167 -81.6667 261° West 420 483 38,000  Level Toronto Center
Sat 12:40:42 PM 43.2833 -81.8333 255° West 420 483 38,000  Level Toronto Center
Sat 12:41:42 PM 43.2500 -81.9833 253° West 420 483 38,000  Level Toronto Center
Sat 12:42:42 PM 43.2333 -82.1333 261° West 420 483 38,000  Level Toronto Center
Sat 12:43:42 PM 43.2000 -82.3167 256° West 420 483 38,000  Level Toronto Center
Sat 12:44:42 PM 43.1833 -82.4500 260° West 430 495 38,000  Level Toronto Center
Sat 12:45:48 PM 43.1608 -82.6408 261° West 428 493 38,000  Level Cleveland Center
Sat 12:46:48 PM 43.1350 -82.8050 258° West 433 498 38,000  Level Cleveland Center
Sat 12:47:48 PM 43.1067 -82.9606 256° West 433 498 38,000  Level Cleveland Center
Sat 12:48:48 PM 43.0806 -83.1217 258° West 433 498 38,000  Level Cleveland Center
Sat 12:49:48 PM 43.0475 -83.2822 254° West 428 493 38,000  Level Cleveland Center
Sat 12:50:48 PM 43.0206 -83.4486 258° West 434 499 38,000  Level Cleveland Center
Sat 12:51:48 PM 42.9914 -83.6119 256° West 440 506 38,000  Level Cleveland Center
Sat 12:52:48 PM 42.9642 -83.7722 257° West 440 506 38,000 -650 Level Cleveland Center
Sat 12:53:48 PM 42.9803 -83.9433 277° West 446 513 36,700 -1,350 Descending Cleveland Center
Sat 12:54:48 PM 43.0169 -84.1072 287° West 437 503 35,300 -1,500 Descending Cleveland Center
Sat 12:55:48 PM 43.0225 -84.2694 273° West 437 503 33,700 -1,450 Descending Cleveland Center
Sat 12:56:48 PM 42.9867 -84.4036 250° West 418 481 32,400 -1,342 Descending Cleveland Center
Sat 12:57:04 PM 42.9733 -84.4572 251° West 440 506 32,000 -308 Descending Chicago Center
Sat 12:58:06 PM 42.9286 -84.6208 250° West 457 526 32,000  Level Chicago Center
Sat 12:59:07 PM 42.8839 -84.7900 250° West 473 544 32,000  Level Chicago Center
Sat 01:00:09 PM 42.8456 -84.9583 253° West 466 536 32,000  Level Chicago Center
Sat 01:01:11 PM 42.8272 -85.1308 262° West 462 532 32,000 -146 Level Chicago Center
Sat 01:02:12 PM 42.8081 -85.3036 261° West 460 529 31,700 -1,073 Descending Chicago Center
Sat 01:03:14 PM 42.7847 -85.5103 261° West 460 529 29,800 -1,645 Descending Chicago Center
Sat 01:04:16 PM 42.7536 -85.6786 256° West 456 525 28,300 -1,463 Descending Chicago Center
Sat 01:05:17 PM 42.7250 -85.8408 257° West 444 511 26,800 -1,463 Descending Chicago Center
Sat 01:06:19 PM 42.6969 -85.9950 256° West 423 487 25,300 -1,452 Descending Chicago Center
Sat 01:07:21 PM 42.6700 -86.1456 256° West 410 472 23,800 -1,561 Descending Chicago Center
Sat 01:08:22 PM 42.6431 -86.2894 256° West 397 457 22,100 -1,659 Descending Chicago Center
Sat 01:09:24 PM 42.6144 -86.4378 255° West 404 465 20,400 -1,694 Descending Chicago Center
Sat 01:10:26 PM 42.5858 -86.5917 256° West 420 483 18,600 -1,854 Descending Chicago Center
Sat 01:11:27 PM 42.5547 -86.7622 256° West 396 456 16,600 -1,902 Descending Chicago Center
Sat 01:12:29 PM 42.5139 -86.8986 248° West 382 440 14,700 -1,790 Descending Chicago Center
Sat 01:13:31 PM 42.4775 -87.0322 250° West 380 437 12,900 -1,742 Descending Chicago Center
Sat 01:14:33 PM 42.4406 -87.1625 249° West 373 429 11,100 -1,415 Descending Chicago Center
Sat 01:15:34 PM 42.4044 -87.2928 249° West 372 428 10,000 -537 Descending Chicago Center
Sat 01:16:36 PM 42.3717 -87.4158 250° West 370 426 10,000  Level Chicago Center
Sat 01:17:38 PM 42.3244 -87.5500 245° Southwest 332 382 10,000 -629 Level Chicago Center
Sat 01:18:40 PM 42.2614 -87.6181 219° Southwest 297 342 8,700 -1,220 Descending Chicago Center
Sat 01:19:41 PM 42.1992 -87.6831 218° Southwest 286 329 7,500 -780 Descending Chicago Center
Sat 01:20:43 PM 42.1408 -87.7436 218° Southwest 267 307 7,100 -224 Descending Chicago Center
Sat 01:21:28 PM 42.1000 -87.8000 226° Southwest 285 328 7,100  Level Chicago TRACON
Sat 01:22:28 PM 42.1000 -87.9167 270° West 285 328 7,100 -50 Level Chicago TRACON
Sat 01:23:28 PM 42.1000 -88.0000 270° West 246 283 7,000 -789 Descending Chicago TRACON
Sat 01:24:22 PM 42.0833 -88.1000 257° West 252 290 5,600 -1,463 Descending Chicago TRACON
Sat 01:24:50 PM 42.0911 -88.1336 287° West 249 287 5,000 -1,067 Descending Chicago Center
Sat 01:25:52 PM 42.0825 -88.2181 262° West 249 287 4,000 -484 Descending Chicago Center
Sat 01:26:54 PM 42.0314 -88.2236 185° South 203 234 4,000 -390 Level Chicago Center
Sat 01:27:55 PM 42.0022 -88.1714 127° Southeast 185 213 3,200 -829 Descending Chicago Center
Sat 01:28:57 PM 41.9811 -88.1081 114° Southeast 184 212 2,300 -585 Descending Chicago Center
Sat 01:29:17 PM 41.9833 -88.0667 86° East 181 208 2,400 -150 Climbing Chicago TRACON
Sat 01:30:17 PM 41.9833 -88.0000 90° East 173 199 2,100 -300 Descending Chicago TRACON

Login

Don't have an account? Register now (free) for customized features, flight alerts, and more!